Time;durP1;ratioP1;P1;durP2;ratioP2;P2;SDS_P1;SDS_P2;PMS_P1;PMS_P2;Temp;Humidity;BMP_temperature;BMP_pressure;BME280_temperature;BME280_humidity;BME280_pressure;Samples;Min_cycle;Max_cycle;Signal;HPM_P1;HPM_P2
2024/03/09 00:00:33;;;;;;;4.97;4.57;;;7.20;99.90;;;;;;5017006;28;20204;-75
2024/03/09 00:03:01;;;;;;;5.03;4.63;;;7.20;99.90;;;;;;5017081;28;20223;-74
2024/03/09 00:05:28;;;;;;;6.00;5.50;;;7.10;99.90;;;;;;5019542;28;20214;-74
2024/03/09 00:07:58;;;;;;;5.82;5.22;;;7.10;99.90;;;;;;5018397;28;21428;-74
2024/03/09 00:10:26;;;;;;;5.35;4.95;;;7.00;99.90;;;;;;5018970;28;20249;-74
2024/03/09 00:12:54;;;;;;;4.63;4.32;;;7.00;99.90;;;;;;5015554;28;20220;-75
2024/03/09 00:15:23;;;;;;;4.28;3.97;;;7.00;99.90;;;;;;5016628;28;20368;-75
2024/03/09 00:17:51;;;;;;;5.28;4.85;;;7.10;99.90;;;;;;5016776;28;20223;-74
2024/03/09 00:20:21;;;;;;;4.20;3.90;;;7.10;99.90;;;;;;5018017;28;20275;-74
2024/03/09 00:22:49;;;;;;;4.07;3.75;;;7.10;99.90;;;;;;5014735;28;20219;-75
2024/03/09 00:25:17;;;;;;;4.18;3.88;;;7.10;99.90;;;;;;5020697;28;20203;-74
2024/03/09 00:27:44;;;;;;;4.07;3.78;;;7.20;99.90;;;;;;5021945;28;20247;-74
2024/03/09 00:30:17;;;;;;;4.45;4.05;;;7.20;99.90;;;;;;5023082;28;20273;-77
2024/03/09 00:32:45;;;;;;;4.30;3.90;;;7.20;99.90;;;;;;5027231;28;20227;-76
2024/03/09 00:35:13;;;;;;;4.15;3.85;;;7.20;99.90;;;;;;5021528;28;20582;-75
2024/03/09 00:37:40;;;;;;;3.92;3.63;;;7.10;99.90;;;;;;5016232;28;20251;-75
2024/03/09 00:40:09;;;;;;;4.13;3.83;;;7.20;99.90;;;;;;5020376;28;20761;-74
2024/03/09 00:42:37;;;;;;;4.18;3.88;;;7.20;99.90;;;;;;5021415;28;20988;-74
2024/03/09 00:45:05;;;;;;;4.22;3.92;;;7.20;99.90;;;;;;5019359;28;20206;-73
2024/03/09 00:47:34;;;;;;;4.93;4.22;;;7.10;99.90;;;;;;5020326;28;20216;-74
2024/03/09 00:50:01;;;;;;;5.47;4.97;;;7.10;99.90;;;;;;5017349;28;20247;-75
2024/03/09 00:52:28;;;;;;;5.32;4.93;;;7.10;99.90;;;;;;5019020;28;20311;-75
2024/03/09 00:54:56;;;;;;;4.88;4.50;;;7.10;99.90;;;;;;5021280;28;20239;-74
2024/03/09 00:57:23;;;;;;;5.03;4.63;;;7.10;99.90;;;;;;5023308;28;20307;-74
2024/03/09 00:59:52;;;;;;;4.70;4.30;;;7.10;99.90;;;;;;5022529;28;20539;-74
2024/03/09 01:02:20;;;;;;;5.38;4.95;;;7.10;99.90;;;;;;5016578;28;20218;-74
2024/03/09 01:04:50;;;;;;;5.05;4.60;;;7.10;99.90;;;;;;5020437;28;20223;-74
2024/03/09 01:07:19;;;;;;;5.80;5.18;;;7.00;99.90;;;;;;5018454;28;20219;-75
2024/03/09 01:09:48;;;;;;;5.25;4.75;;;6.90;99.90;;;;;;5019028;28;20220;-74
2024/03/09 01:12:15;;;;;;;6.07;5.57;;;6.90;99.90;;;;;;5020478;28;20207;-74
2024/03/09 01:14:42;;;;;;;5.00;4.65;;;6.90;99.90;;;;;;5018160;28;20199;-75
2024/03/09 01:17:10;;;;;;;4.88;4.47;;;6.80;99.90;;;;;;5020699;28;20247;-74
2024/03/09 01:19:37;;;;;;;5.05;4.65;;;6.80;99.90;;;;;;5017906;28;20281;-75
2024/03/09 01:22:06;;;;;;;4.40;4.10;;;6.80;99.90;;;;;;5019274;28;20257;-76
2024/03/09 01:24:33;;;;;;;4.53;4.22;;;6.80;99.90;;;;;;5018165;28;20199;-75
2024/03/09 01:27:00;;;;;;;4.80;4.40;;;6.80;99.90;;;;;;5022348;28;20222;-74
2024/03/09 01:29:27;;;;;;;5.47;4.97;;;6.90;99.90;;;;;;5029880;28;20660;-76
2024/03/09 01:31:53;;;;;;;5.10;4.70;;;6.80;99.90;;;;;;5021423;28;20227;-74
2024/03/09 01:34:22;;;;;;;5.18;4.75;;;6.80;99.90;;;;;;5020109;28;20680;-74
2024/03/09 01:36:49;;;;;;;5.43;4.90;;;6.80;99.90;;;;;;5020363;28;20234;-74
2024/03/09 01:39:16;;;;;;;4.72;4.32;;;6.80;99.90;;;;;;5021215;28;20251;-74
2024/03/09 01:41:42;;;;;;;5.72;5.18;;;6.80;99.90;;;;;;5019503;28;20306;-73
2024/03/09 01:44:10;;;;;;;5.78;5.28;;;6.70;99.90;;;;;;5021246;28;20235;-74
2024/03/09 01:46:37;;;;;;;5.63;5.03;;;6.60;99.90;;;;;;5020745;28;20223;-74
2024/03/09 01:49:04;;;;;;;7.90;5.90;;;6.60;99.90;;;;;;5019075;28;20338;-74
2024/03/09 01:51:34;;;;;;;5.18;4.78;;;6.60;99.90;;;;;;5020555;28;20914;-74
2024/03/09 01:54:10;;;;;;;5.07;4.68;;;6.60;99.90;;;;;;5022597;28;20235;-74
2024/03/09 01:56:38;;;;;;;5.45;4.95;;;6.60;99.90;;;;;;5020949;28;20223;-76
2024/03/09 01:59:07;;;;;;;5.35;4.95;;;6.70;99.90;;;;;;5021974;28;20251;-74
2024/03/09 02:01:36;;;;;;;5.15;4.75;;;6.70;99.90;;;;;;5022213;28;20227;-75
2024/03/09 02:04:04;;;;;;;5.55;5.05;;;6.70;99.90;;;;;;5019092;28;20254;-74
2024/03/09 02:06:33;;;;;;;5.38;4.90;;;6.70;99.90;;;;;;5019624;28;20273;-73
2024/03/09 02:09:07;;;;;;;5.55;5.05;;;6.60;99.90;;;;;;5020253;28;20295;-75
2024/03/09 02:11:36;;;;;;;4.68;4.28;;;6.60;99.90;;;;;;5022997;28;20253;-73
2024/03/09 02:14:04;;;;;;;6.38;5.78;;;6.60;99.90;;;;;;5026947;28;20230;-74
2024/03/09 02:16:31;;;;;;;6.10;5.60;;;6.60;99.90;;;;;;5024779;28;20664;-74
2024/03/09 02:18:58;;;;;;;6.15;5.65;;;6.50;99.90;;;;;;5025498;28;20922;-75
2024/03/09 02:21:26;;;;;;;6.03;5.53;;;6.50;99.90;;;;;;5023240;28;20246;-75
2024/03/09 02:24:02;;;;;;;5.97;5.47;;;6.50;99.90;;;;;;5028285;28;20206;-73
2024/03/09 02:26:31;;;;;;;5.60;5.20;;;6.40;99.90;;;;;;5022798;28;20238;-74
2024/03/09 02:28:58;;;;;;;6.13;5.63;;;6.40;99.90;;;;;;5040210;28;20216;-75
2024/03/09 02:31:26;;;;;;;6.30;5.80;;;6.40;99.90;;;;;;5025819;28;20233;-74
2024/03/09 02:33:55;;;;;;;5.78;5.28;;;6.40;99.90;;;;;;5032361;28;20285;-75
2024/03/09 02:36:25;;;;;;;5.82;5.35;;;6.40;99.90;;;;;;5026586;28;20611;-75
2024/03/09 02:38:53;;;;;;;5.45;5.05;;;6.50;99.90;;;;;;5023949;28;20319;-74
2024/03/09 02:41:20;;;;;;;5.90;5.40;;;6.50;99.90;;;;;;5027717;28;20234;-75
2024/03/09 02:43:49;;;;;;;5.60;5.10;;;6.50;99.90;;;;;;5024438;28;20297;-75
2024/03/09 02:46:16;;;;;;;5.28;4.88;;;6.50;99.90;;;;;;5025916;28;20203;-75
2024/03/09 02:48:44;;;;;;;5.88;5.38;;;6.50;99.90;;;;;;5026482;28;20212;-74
2024/03/09 02:51:12;;;;;;;4.65;4.25;;;6.60;99.90;;;;;;5026521;28;20687;-76
2024/03/09 02:53:40;;;;;;;5.10;4.70;;;6.60;99.90;;;;;;5022045;28;20195;-75
2024/03/09 02:56:08;;;;;;;4.53;4.20;;;6.70;99.90;;;;;;5022192;28;20223;-76
2024/03/09 02:58:36;;;;;;;5.07;4.63;;;6.70;99.90;;;;;;5028111;28;20334;-75
2024/03/09 03:01:07;;;;;;;4.90;4.50;;;6.70;99.90;;;;;;5020358;28;20275;-74
2024/03/09 03:03:46;;;;;;;4.70;4.32;;;6.70;99.90;;;;;;5023810;28;20206;-75
2024/03/09 03:06:15;;;;;;;4.53;4.20;;;6.80;99.90;;;;;;5019976;28;20211;-74
2024/03/09 03:08:42;;;;;;;5.05;4.65;;;6.80;99.90;;;;;;5019015;28;20709;-75
2024/03/09 03:11:11;;;;;;;5.20;4.80;;;6.80;99.90;;;;;;5022253;28;20277;-75
2024/03/09 03:13:38;;;;;;;4.63;4.25;;;6.90;99.90;;;;;;5024089;28;20212;-75
2024/03/09 03:16:11;;;;;;;5.45;5.05;;;6.90;99.90;;;;;;5023416;28;20237;-76
2024/03/09 03:18:38;;;;;;;5.00;4.60;;;6.90;99.90;;;;;;5021710;28;20228;-74
2024/03/09 03:21:06;;;;;;;4.57;4.20;;;6.90;99.90;;;;;;5022577;28;20277;-74
2024/03/09 03:23:36;;;;;;;4.45;4.05;;;6.90;99.90;;;;;;5023557;28;20208;-75
2024/03/09 03:26:03;;;;;;;4.60;4.30;;;7.00;99.90;;;;;;5023031;28;20200;-78
2024/03/09 03:28:32;;;;;;;4.57;4.28;;;6.90;99.90;;;;;;5039300;28;20216;-75
2024/03/09 03:30:59;;;;;;;4.65;4.30;;;6.90;99.90;;;;;;5022466;28;20659;-75
2024/03/09 03:33:28;;;;;;;4.57;4.25;;;6.90;99.90;;;;;;5026375;28;20218;-75
2024/03/09 03:35:56;;;;;;;5.20;4.80;;;6.90;99.90;;;;;;5024538;28;20204;-75
2024/03/09 03:38:23;;;;;;;5.22;4.82;;;6.90;99.90;;;;;;5022778;28;20706;-74
2024/03/09 03:40:51;;;;;;;4.35;4.05;;;6.90;99.90;;;;;;5020748;28;20231;-75
2024/03/09 03:43:18;;;;;;;4.97;4.57;;;6.90;99.90;;;;;;5023886;28;20219;-74
2024/03/09 03:45:45;;;;;;;4.35;4.05;;;6.90;99.90;;;;;;5027738;28;20314;-74
2024/03/09 03:48:15;;;;;;;5.28;4.78;;;6.80;99.90;;;;;;5020424;28;20247;-76
2024/03/09 03:50:44;;;;;;;4.68;4.38;;;6.80;99.90;;;;;;5023564;28;20213;-75
2024/03/09 03:53:10;;;;;;;5.10;4.60;;;6.80;99.90;;;;;;5024336;28;20298;-74
2024/03/09 03:55:38;;;;;;;4.72;4.43;;;6.70;99.90;;;;;;5021927;28;20798;-76
2024/03/09 03:58:06;;;;;;;4.70;4.30;;;6.70;99.90;;;;;;5021917;28;20744;-75
2024/03/09 04:00:34;;;;;;;4.30;4.00;;;6.70;99.90;;;;;;5023494;28;20774;-75
2024/03/09 04:03:01;;;;;;;4.20;3.90;;;6.70;99.90;;;;;;5024552;28;20275;-74
2024/03/09 04:05:29;;;;;;;3.75;3.45;;;6.80;99.90;;;;;;5034398;28;20191;-75
2024/03/09 04:07:58;;;;;;;4.22;3.92;;;6.80;99.90;;;;;;5026884;28;20235;-75
2024/03/09 04:10:25;;;;;;;3.13;2.92;;;6.80;99.90;;;;;;5023123;28;20564;-75
2024/03/09 04:12:52;;;;;;;3.53;3.33;;;6.80;99.90;;;;;;5020600;28;20306;-76
2024/03/09 04:15:19;;;;;;;3.88;3.67;;;6.80;99.90;;;;;;5021883;28;20245;-75
2024/03/09 04:17:46;;;;;;;3.60;3.40;;;6.80;99.90;;;;;;5019471;28;20300;-76
2024/03/09 04:20:15;;;;;;;3.90;3.60;;;6.80;99.90;;;;;;5023839;28;20259;-75
2024/03/09 04:22:43;;;;;;;4.00;3.70;;;6.80;99.90;;;;;;5016621;28;20715;-75
2024/03/09 04:25:11;;;;;;;3.55;3.25;;;6.80;99.90;;;;;;5025578;28;20219;-76
2024/03/09 04:27:38;;;;;;;4.35;4.05;;;6.80;99.90;;;;;;5034013;28;20813;-75
2024/03/09 04:30:07;;;;;;;3.88;3.58;;;6.80;99.90;;;;;;5021117;28;20243;-77
2024/03/09 04:32:34;;;;;;;3.53;3.30;;;6.80;99.90;;;;;;5018842;28;20224;-75
2024/03/09 04:35:01;;;;;;;3.80;3.60;;;6.80;99.90;;;;;;5021015;28;20635;-76
2024/03/09 04:37:28;;;;;;;3.75;3.45;;;6.80;99.90;;;;;;5018929;28;20221;-75
2024/03/09 04:39:58;;;;;;;4.05;3.75;;;6.80;99.90;;;;;;5020177;28;20277;-74
2024/03/09 04:42:28;;;;;;;4.07;3.78;;;6.80;99.90;;;;;;5021713;28;20223;-75
2024/03/09 04:44:55;;;;;;;3.67;3.45;;;6.80;99.90;;;;;;5022320;28;20219;-76
2024/03/09 04:47:23;;;;;;;3.60;3.40;;;6.80;99.90;;;;;;5014641;28;20309;-74
2024/03/09 04:49:50;;;;;;;3.70;3.40;;;6.80;99.90;;;;;;5017973;28;20222;-75
2024/03/09 04:52:17;;;;;;;4.18;3.88;;;6.70;99.90;;;;;;5017617;28;20227;-74
2024/03/09 04:54:44;;;;;;;3.67;3.38;;;6.70;99.90;;;;;;5021972;28;20198;-76
2024/03/09 04:57:17;;;;;;;4.32;4.03;;;6.70;99.90;;;;;;5019115;28;20234;-75
2024/03/09 04:59:45;;;;;;;3.83;3.47;;;6.70;99.90;;;;;;5020245;28;20348;-74
2024/03/09 05:02:12;;;;;;;3.90;3.60;;;6.70;99.90;;;;;;5012985;28;20768;-75
2024/03/09 05:04:39;;;;;;;3.72;3.53;;;6.70;99.90;;;;;;5020978;28;20211;-74
2024/03/09 05:07:08;;;;;;;3.70;3.40;;;6.70;99.90;;;;;;5019853;28;20246;-74
2024/03/09 05:09:37;;;;;;;3.75;3.45;;;6.70;99.90;;;;;;5015399;28;20234;-74
2024/03/09 05:12:04;;;;;;;4.55;4.25;;;6.70;99.90;;;;;;5019547;28;20227;-75
2024/03/09 05:14:31;;;;;;;3.85;3.55;;;6.70;99.90;;;;;;5016809;28;21699;-75
2024/03/09 05:17:00;;;;;;;4.25;3.95;;;6.70;99.90;;;;;;5017581;28;20318;-76
2024/03/09 05:19:26;;;;;;;4.47;4.18;;;6.70;99.90;;;;;;5014729;28;20226;-75
2024/03/09 05:21:54;;;;;;;4.88;4.47;;;6.60;99.90;;;;;;5018243;28;20262;-75
2024/03/09 05:24:20;;;;;;;4.30;4.00;;;6.70;99.90;;;;;;5033220;28;20203;-77
2024/03/09 05:26:48;;;;;;;5.57;5.15;;;6.60;99.90;;;;;;5024227;28;20292;-74
2024/03/09 05:29:15;;;;;;;5.35;4.95;;;6.50;99.90;;;;;;5021612;28;20251;-75
2024/03/09 05:31:42;;;;;;;5.60;5.10;;;6.40;99.90;;;;;;5013919;28;20227;-77
2024/03/09 05:34:11;;;;;;;5.07;4.68;;;6.40;99.90;;;;;;5018377;28;20199;-76
2024/03/09 05:36:39;;;;;;;5.00;4.60;;;6.40;99.90;;;;;;5014713;28;20720;-75
2024/03/09 05:39:06;;;;;;;5.28;4.82;;;6.40;99.90;;;;;;5019115;28;20215;-75
2024/03/09 05:41:36;;;;;;;5.47;4.93;;;6.50;99.90;;;;;;5016643;28;20234;-75
2024/03/09 05:44:03;;;;;;;5.63;5.18;;;6.50;99.90;;;;;;5021027;28;20203;-75
2024/03/09 05:46:30;;;;;;;5.63;5.00;;;6.50;99.90;;;;;;5018085;28;20281;-76
2024/03/09 05:48:56;;;;;;;6.10;5.60;;;6.40;99.90;;;;;;5017865;28;20222;-75
2024/03/09 05:51:25;;;;;;;5.57;5.18;;;6.50;99.90;;;;;;5013308;28;20765;-75
2024/03/09 05:53:53;;;;;;;5.97;5.53;;;6.50;99.90;;;;;;5017777;28;20886;-74
2024/03/09 05:56:20;;;;;;;5.55;5.05;;;6.50;99.90;;;;;;5016367;28;20227;-75
2024/03/09 05:58:47;;;;;;;5.20;4.80;;;6.50;99.90;;;;;;5018723;28;20220;-76
2024/03/09 06:01:14;;;;;;;5.32;4.93;;;6.50;99.90;;;;;;5012631;28;20270;-76
2024/03/09 06:03:42;;;;;;;5.35;4.85;;;6.50;99.90;;;;;;5021199;28;20200;-75
2024/03/09 06:06:09;;;;;;;4.95;4.60;;;6.60;99.90;;;;;;5015034;28;20212;-75
2024/03/09 06:08:38;;;;;;;4.40;4.10;;;6.50;99.90;;;;;;5018411;28;20232;-74
2024/03/09 06:11:06;;;;;;;4.70;4.40;;;6.60;99.90;;;;;;5015451;28;20643;-74
2024/03/09 06:13:33;;;;;;;4.95;4.55;;;6.50;99.90;;;;;;5017191;28;20297;-75
2024/03/09 06:16:00;;;;;;;5.25;4.85;;;6.60;99.90;;;;;;5018777;28;20827;-76
2024/03/09 06:18:27;;;;;;;5.53;5.07;;;6.60;99.90;;;;;;5018089;28;20309;-75
2024/03/09 06:20:55;;;;;;;6.95;6.35;;;6.50;99.90;;;;;;5017992;28;20785;-74
2024/03/09 06:23:23;;;;;;;6.15;5.65;;;6.50;99.90;;;;;;5020618;28;20226;-75
2024/03/09 06:25:53;;;;;;;5.88;5.38;;;6.50;99.90;;;;;;5022316;28;20722;-76
2024/03/09 06:28:20;;;;;;;5.93;5.43;;;6.50;99.90;;;;;;5019590;28;20298;-74
2024/03/09 06:30:47;;;;;;;5.93;5.43;;;6.50;99.90;;;;;;5018013;28;20227;-75
2024/03/09 06:33:14;;;;;;;5.97;5.57;;;6.50;99.90;;;;;;5019160;28;20231;-75
2024/03/09 06:35:41;;;;;;;6.47;5.97;;;6.50;99.90;;;;;;5016753;28;20204;-75
2024/03/09 06:38:09;;;;;;;6.40;5.90;;;6.60;99.90;;;;;;5015980;28;20788;-75
2024/03/09 06:40:39;;;;;;;6.00;5.50;;;6.60;99.90;;;;;;5014357;28;20234;-75
2024/03/09 06:43:08;;;;;;;7.43;6.82;;;6.60;99.90;;;;;;5015297;28;20246;-75
2024/03/09 06:45:37;;;;;;;6.63;6.13;;;6.60;99.90;;;;;;5024695;28;20801;-74
2024/03/09 06:48:04;;;;;;;6.78;6.18;;;6.60;99.90;;;;;;5021344;28;20217;-74
2024/03/09 06:50:33;;;;;;;7.22;6.63;;;6.60;99.90;;;;;;5023028;28;20288;-74
2024/03/09 06:53:00;;;;;;;6.75;6.25;;;6.70;99.90;;;;;;5023083;28;20228;-74
2024/03/09 06:55:29;;;;;;;7.25;6.57;;;6.70;99.90;;;;;;5027251;28;20310;-75
2024/03/09 06:58:01;;;;;;;7.45;6.80;;;6.70;99.90;;;;;;5024319;28;20243;-77
2024/03/09 07:00:30;;;;;;;6.90;6.40;;;6.70;99.90;;;;;;5022025;28;20223;-74
2024/03/09 07:02:58;;;;;;;6.95;6.35;;;6.80;99.90;;;;;;5022117;28;20301;-75
2024/03/09 07:05:27;;;;;;;6.90;6.35;;;6.80;99.90;;;;;;5025820;28;20204;-75
2024/03/09 07:07:55;;;;;;;6.63;6.13;;;6.90;99.90;;;;;;5020185;28;20219;-75
2024/03/09 07:10:22;;;;;;;6.07;5.60;;;7.00;99.90;;;;;;5024784;28;20212;-75
2024/03/09 07:12:49;;;;;;;5.93;5.43;;;7.00;99.90;;;;;;5022314;28;20243;-75
2024/03/09 07:15:17;;;;;;;5.60;5.10;;;7.10;99.90;;;;;;5020649;28;20235;-74
2024/03/09 07:17:46;;;;;;;6.30;5.80;;;7.10;99.90;;;;;;5022225;28;20229;-74
2024/03/09 07:20:13;;;;;;;5.97;5.47;;;7.00;99.90;;;;;;5022376;28;20301;-76
2024/03/09 07:22:41;;;;;;;6.40;5.90;;;7.00;99.90;;;;;;5024493;28;20310;-76
2024/03/09 07:25:10;;;;;;;5.82;5.32;;;7.00;99.90;;;;;;5022336;28;20235;-75
2024/03/09 07:27:40;;;;;;;6.22;5.72;;;7.00;99.90;;;;;;5024927;28;20226;-75
2024/03/09 07:30:09;;;;;;;6.28;5.80;;;7.00;99.90;;;;;;5023708;28;20215;-75
2024/03/09 07:32:37;;;;;;;6.28;5.72;;;7.10;99.90;;;;;;5023096;28;20243;-77
2024/03/09 07:35:14;;;;;;;6.00;5.50;;;7.10;99.90;;;;;;5023153;28;20211;-76
2024/03/09 07:37:42;;;;;;;6.10;5.60;;;7.10;99.90;;;;;;5019274;28;20753;-77
2024/03/09 07:40:13;;;;;;;6.53;6.03;;;7.00;99.90;;;;;;5022125;28;20254;-75
2024/03/09 07:42:40;;;;;;;6.18;5.57;;;7.00;99.90;;;;;;5019053;28;20758;-76
2024/03/09 07:45:10;;;;;;;6.68;6.18;;;6.90;99.90;;;;;;5020821;28;20285;-76
2024/03/09 07:47:39;;;;;;;6.18;5.68;;;6.90;99.90;;;;;;5021439;28;20908;-76
2024/03/09 07:50:13;;;;;;;6.47;5.97;;;6.90;99.90;;;;;;5020798;28;20242;-74
2024/03/09 07:52:42;;;;;;;6.72;6.13;;;6.90;99.90;;;;;;5023177;28;20233;-75
2024/03/09 07:55:11;;;;;;;6.80;6.05;;;7.00;99.90;;;;;;5022526;28;20741;-75
2024/03/09 07:57:40;;;;;;;6.88;6.28;;;7.00;99.90;;;;;;5020394;28;20227;-74
2024/03/09 08:00:08;;;;;;;6.00;5.50;;;6.90;99.90;;;;;;5020163;28;20226;-76
2024/03/09 08:02:37;;;;;;;6.70;5.60;;;6.90;99.90;;;;;;5021625;28;20286;-75
2024/03/09 08:05:07;;;;;;;6.07;5.57;;;6.80;99.90;;;;;;5016049;28;20328;-78
2024/03/09 08:07:36;;;;;;;7.05;6.45;;;6.90;99.90;;;;;;5018445;28;20232;-75
2024/03/09 08:10:06;;;;;;;6.07;5.57;;;7.00;99.90;;;;;;5021013;28;20235;-75
2024/03/09 08:12:34;;;;;;;7.07;6.45;;;6.90;99.90;;;;;;5020511;28;20234;-75
2024/03/09 08:15:01;;;;;;;6.53;6.03;;;6.90;99.90;;;;;;5020958;28;20206;-75
2024/03/09 08:17:28;;;;;;;6.10;5.60;;;6.90;99.90;;;;;;5020611;28;20223;-76
2024/03/09 08:19:55;;;;;;;6.15;5.60;;;7.00;99.90;;;;;;5021089;28;20766;-75
2024/03/09 08:22:22;;;;;;;6.28;5.72;;;7.10;99.90;;;;;;5029237;28;20223;-74
2024/03/09 08:24:51;;;;;;;6.43;5.93;;;7.10;99.90;;;;;;5022592;28;20291;-75
2024/03/09 08:27:18;;;;;;;6.35;5.85;;;7.20;99.90;;;;;;5019752;28;20753;-74
2024/03/09 08:29:45;;;;;;;6.45;5.95;;;7.40;99.90;;;;;;5017904;28;20216;-74
2024/03/09 08:32:12;;;;;;;6.85;6.28;;;7.70;99.90;;;;;;5022622;28;20318;-73
2024/03/09 08:34:39;;;;;;;6.28;5.78;;;8.00;99.90;;;;;;5021532;28;20714;-74
2024/03/09 08:37:08;;;;;;;6.45;5.85;;;8.20;99.90;;;;;;5019610;28;20248;-74
2024/03/09 08:39:35;;;;;;;6.30;5.80;;;8.40;99.90;;;;;;5018607;28;20760;-74
2024/03/09 08:42:06;;;;;;;6.70;5.88;;;8.50;99.90;;;;;;5019933;28;20994;-72
2024/03/09 08:44:35;;;;;;;7.20;6.57;;;8.40;99.90;;;;;;5019207;28;20203;-76
2024/03/09 08:47:03;;;;;;;7.93;7.13;;;8.40;99.90;;;;;;5019174;28;20239;-77
2024/03/09 08:49:30;;;;;;;7.45;6.75;;;8.80;99.90;;;;;;5021215;28;20215;-77
2024/03/09 08:51:57;;;;;;;7.85;7.10;;;8.70;99.90;;;;;;5019551;28;20309;-76
2024/03/09 08:54:24;;;;;;;7.85;7.22;;;8.50;99.90;;;;;;5018836;28;20302;-77
2024/03/09 08:56:54;;;;;;;8.75;8.00;;;8.20;99.90;;;;;;5018134;28;20246;-76
2024/03/09 08:59:22;;;;;;;8.40;7.63;;;8.00;99.90;;;;;;5018024;28;20717;-77
2024/03/09 09:01:49;;;;;;;12.63;8.40;;;7.80;99.90;;;;;;5016204;28;20223;-76
2024/03/09 09:04:17;;;;;;;8.55;7.75;;;7.80;99.90;;;;;;5018515;28;20227;-76
2024/03/09 09:06:45;;;;;;;7.70;7.10;;;7.70;99.90;;;;;;5017082;28;20235;-75
2024/03/09 09:09:24;;;;;;;7.20;6.60;;;7.70;99.90;;;;;;5012140;28;20331;-77
2024/03/09 09:11:51;;;;;;;6.40;5.90;;;7.70;99.90;;;;;;5012618;28;20219;-76
2024/03/09 09:14:19;;;;;;;6.32;5.72;;;7.80;99.90;;;;;;5015703;28;20959;-76
2024/03/09 09:16:47;;;;;;;6.07;5.57;;;7.90;99.90;;;;;;5013087;28;20291;-76
2024/03/09 09:19:14;;;;;;;5.95;5.45;;;8.00;99.90;;;;;;5029165;28;20223;-77
2024/03/09 09:21:41;;;;;;;5.82;5.35;;;8.10;99.90;;;;;;5024646;28;20699;-75
2024/03/09 09:24:08;;;;;;;5.60;5.20;;;8.20;99.90;;;;;;5021803;28;20231;-75
2024/03/09 09:26:35;;;;;;;7.45;6.75;;;8.20;99.90;;;;;;5013764;28;20306;-77
2024/03/09 09:29:03;;;;;;;7.43;6.72;;;8.20;99.90;;;;;;5022344;28;20223;-76
2024/03/09 09:31:32;;;;;;;7.70;7.00;;;8.20;99.90;;;;;;5017628;28;20575;-77
2024/03/09 09:34:01;;;;;;;7.93;7.18;;;8.30;99.90;;;;;;5016953;28;20214;-77
2024/03/09 09:36:29;;;;;;;7.18;6.55;;;8.40;99.90;;;;;;5019192;28;20251;-77
2024/03/09 09:38:59;;;;;;;8.15;7.40;;;8.60;99.90;;;;;;5021084;28;20222;-77
2024/03/09 09:41:28;;;;;;;7.05;6.43;;;8.80;99.90;;;;;;5018445;28;20241;-76
2024/03/09 09:43:57;;;;;;;7.30;6.70;;;8.90;99.90;;;;;;5020040;28;20204;-76
2024/03/09 09:46:26;;;;;;;7.57;6.88;;;8.90;99.90;;;;;;5019042;28;20227;-77
2024/03/09 09:48:53;;;;;;;7.60;6.90;;;8.90;99.90;;;;;;5020975;28;20256;-76
2024/03/09 09:51:23;;;;;;;7.65;6.95;;;8.90;99.90;;;;;;5019672;28;20322;-76
2024/03/09 09:53:52;;;;;;;7.22;6.63;;;8.90;99.90;;;;;;5018472;28;20195;-76
2024/03/09 09:56:21;;;;;;;9.35;7.50;;;9.10;99.90;;;;;;5022296;28;20218;-76
2024/03/09 09:58:49;;;;;;;8.02;7.32;;;9.30;99.90;;;;;;5022176;28;20710;-76
2024/03/09 10:01:20;;;;;;;6.88;6.28;;;9.50;99.90;;;;;;5020321;28;20226;-75
2024/03/09 10:03:48;;;;;;;6.80;6.20;;;9.90;99.90;;;;;;5019633;28;20349;-76
2024/03/09 10:06:20;;;;;;;7.18;6.57;;;10.20;99.90;;;;;;5017892;28;20287;-75
2024/03/09 10:08:52;;;;;;;7.70;6.82;;;10.40;99.90;;;;;;5018750;28;20310;-75
2024/03/09 10:11:22;;;;;;;7.93;7.13;;;10.60;99.90;;;;;;5016450;28;20227;-76
2024/03/09 10:13:50;;;;;;;7.72;7.03;;;10.50;99.90;;;;;;5023224;28;20207;-76
2024/03/09 10:16:17;;;;;;;6.82;6.32;;;10.80;99.90;;;;;;5015185;28;20210;-75
2024/03/09 10:18:47;;;;;;;6.88;6.28;;;11.00;99.90;;;;;;5045006;28;20227;-77
2024/03/09 10:21:14;;;;;;;6.78;6.07;;;11.40;99.90;;;;;;5020595;28;20226;-76
2024/03/09 10:23:43;;;;;;;6.93;6.32;;;11.50;99.90;;;;;;5019987;28;20207;-76
2024/03/09 10:26:12;;;;;;;6.47;5.88;;;11.60;99.90;;;;;;5026018;28;20227;-76
2024/03/09 10:28:40;;;;;;;6.32;5.82;;;11.90;99.90;;;;;;5025904;28;20228;-76
2024/03/09 10:31:08;;;;;;;5.72;5.05;;;12.30;99.90;;;;;;5028431;28;20236;-77
2024/03/09 10:33:36;;;;;;;5.45;5.05;;;12.50;99.90;;;;;;5029293;28;20320;-76
2024/03/09 10:36:04;;;;;;;5.53;5.03;;;12.50;99.90;;;;;;5022476;28;20752;-75
2024/03/09 10:38:31;;;;;;;6.00;4.85;;;12.20;99.90;;;;;;5026991;28;20223;-76
2024/03/09 10:40:58;;;;;;;5.55;5.15;;;12.10;99.90;;;;;;5023524;28;20300;-77
2024/03/09 10:43:28;;;;;;;5.80;5.30;;;11.90;99.90;;;;;;5020483;28;20311;-77
2024/03/09 10:46:00;;;;;;;5.22;4.72;;;11.70;99.90;;;;;;5022561;28;20211;-75
2024/03/09 10:48:30;;;;;;;4.72;4.32;;;11.40;99.90;;;;;;5006538;28;20338;-76
2024/03/09 10:51:15;;;;;;;4.60;4.20;;;11.30;99.90;;;;;;5001947;28;21593;-76
2024/03/09 10:53:54;;;;;;;4.78;4.03;;;11.30;99.90;;;;;;5000773;28;20227;-76
2024/03/09 10:56:23;;;;;;;4.18;3.88;;;11.30;99.90;;;;;;4995595;28;20234;-78
2024/03/09 10:58:52;;;;;;;4.30;3.95;;;11.30;99.90;;;;;;4998077;28;20224;-77
2024/03/09 11:01:21;;;;;;;4.43;4.00;;;11.30;99.90;;;;;;5005181;28;20238;-75
2024/03/09 11:03:50;;;;;;;4.32;4.03;;;11.60;99.90;;;;;;5002919;28;20219;-76
2024/03/09 11:06:18;;;;;;;5.10;4.70;;;11.80;99.90;;;;;;5006095;28;20709;-75
2024/03/09 11:08:48;;;;;;;4.93;4.53;;;11.80;99.90;;;;;;5024467;28;20219;-77
2024/03/09 11:11:18;;;;;;;5.07;4.68;;;12.10;99.90;;;;;;5025403;28;20200;-76
2024/03/09 11:13:47;;;;;;;5.35;4.85;;;12.40;99.90;;;;;;5022469;28;20242;-75
2024/03/09 11:16:17;;;;;;;5.07;4.65;;;12.70;99.90;;;;;;5026193;28;20264;-77
2024/03/09 11:18:44;;;;;;;5.53;5.03;;;13.10;99.90;;;;;;5033365;28;20927;-75
2024/03/09 11:21:26;;;;;;;4.85;4.40;;;13.30;99.90;;;;;;5029745;28;20219;-75
2024/03/09 11:23:54;;;;;;;5.28;4.88;;;13.70;99.90;;;;;;5026412;28;20663;-76
2024/03/09 11:26:23;;;;;;;4.70;4.30;;;13.70;99.90;;;;;;5020714;28;20234;-77
2024/03/09 11:28:55;;;;;;;4.78;4.38;;;13.90;99.90;;;;;;5022534;28;20222;-77
2024/03/09 11:31:28;;;;;;;5.45;5.03;;;13.80;99.90;;;;;;5026621;28;20231;-76
2024/03/09 11:34:14;;;;;;;5.18;4.68;;;13.40;99.90;;;;;;5022468;28;20272;-77
2024/03/09 11:36:44;;;;;;;4.65;4.25;;;13.20;99.90;;;;;;5020820;28;20262;-77
2024/03/09 11:39:12;;;;;;;5.07;4.68;;;12.80;99.90;;;;;;5024973;28;20286;-77
2024/03/09 11:41:44;;;;;;;5.50;4.75;;;12.50;99.90;;;;;;5020976;28;20254;-76
2024/03/09 11:44:13;;;;;;;4.50;4.10;;;12.50;99.90;;;;;;5020866;28;20680;-76
2024/03/09 11:46:41;;;;;;;4.95;4.55;;;13.00;99.90;;;;;;5021145;28;20647;-76
2024/03/09 11:49:08;;;;;;;5.13;4.70;;;13.20;99.90;;;;;;5024547;28;20308;-76
2024/03/09 11:51:36;;;;;;;4.90;4.50;;;13.30;99.90;;;;;;5023217;28;20223;-75
2024/03/09 11:54:04;;;;;;;4.90;4.50;;;13.60;99.90;;;;;;5025300;28;20561;-77
2024/03/09 11:56:35;;;;;;;4.72;4.32;;;13.80;99.90;;;;;;5019861;28;20227;-77
2024/03/09 11:59:02;;;;;;;4.60;4.20;;;13.70;99.90;;;;;;5021541;28;20262;-77
2024/03/09 12:01:29;;;;;;;4.43;4.07;;;13.70;99.90;;;;;;5019436;28;20291;-76
2024/03/09 12:03:59;;;;;;;4.25;3.95;;;13.80;99.90;;;;;;5022218;28;20775;-76
2024/03/09 12:06:26;;;;;;;3.88;3.58;;;13.30;99.90;;;;;;5019742;28;20216;-76
2024/03/09 12:08:54;;;;;;;4.57;4.28;;;12.90;99.90;;;;;;5019428;28;20719;-77
2024/03/09 12:11:22;;;;;;;4.60;4.28;;;12.50;99.90;;;;;;5021632;28;20227;-76
2024/03/09 12:13:49;;;;;;;4.75;4.30;;;12.30;99.90;;;;;;5023605;28;20223;-76
2024/03/09 12:16:17;;;;;;;4.38;4.07;;;12.20;99.90;;;;;;5031587;28;20890;-77
2024/03/09 12:18:46;;;;;;;5.03;4.20;;;12.20;99.90;;;;;;5020932;28;20238;-76
2024/03/09 12:21:15;;;;;;;4.57;4.13;;;12.30;99.90;;;;;;5022895;28;20220;-76
2024/03/09 12:23:44;;;;;;;4.35;3.95;;;12.70;99.90;;;;;;5021170;28;20885;-77
2024/03/09 12:26:13;;;;;;;4.40;4.00;;;12.90;99.90;;;;;;5018794;28;20196;-77
2024/03/09 12:28:43;;;;;;;4.10;3.70;;;13.00;99.90;;;;;;5022889;28;20263;-76
2024/03/09 12:31:11;;;;;;;3.63;3.42;;;12.90;99.90;;;;;;5023470;28;20227;-77
2024/03/09 12:33:40;;;;;;;3.75;3.45;;;12.90;99.90;;;;;;5023691;28;20219;-77
2024/03/09 12:36:09;;;;;;;3.67;3.42;;;12.70;99.90;;;;;;5025740;28;21414;-78
2024/03/09 12:38:37;;;;;;;4.05;3.75;;;12.70;99.90;;;;;;5025770;28;20317;-78
2024/03/09 12:41:09;;;;;;;3.88;3.58;;;12.60;99.90;;;;;;5019404;28;20313;-76
2024/03/09 12:43:38;;;;;;;6.30;5.80;;;12.60;99.90;;;;;;5026443;28;20231;-76
2024/03/09 12:46:07;;;;;;;5.20;4.80;;;12.70;99.90;;;;;;5023287;28;20287;-77
2024/03/09 12:48:35;;;;;;;4.90;4.15;;;12.90;99.90;;;;;;5028344;28;20793;-76
2024/03/09 12:51:04;;;;;;;3.75;3.45;;;13.00;99.90;;;;;;5025248;28;20204;-75
2024/03/09 12:53:33;;;;;;;4.13;3.72;;;13.20;99.90;;;;;;5026198;28;20222;-76
2024/03/09 12:56:04;;;;;;;4.20;3.80;;;13.30;99.90;;;;;;5025973;28;20294;-78
2024/03/09 12:58:32;;;;;;;4.32;4.03;;;13.40;99.90;;;;;;5024562;28;20278;-76
2024/03/09 13:00:59;;;;;;;4.20;3.90;;;13.30;99.90;;;;;;5026272;28;20215;-77